Time;durP1;ratioP1;P1;durP2;ratioP2;P2;SDS_P1;SDS_P2;PMS_P1;PMS_P2;Temp;Humidity;BMP_temperature;BMP_pressure;BME280_temperature;BME280_humidity;BME280_pressure;Samples;Min_cycle;Max_cycle;Signal;HPM_P1;HPM_P2
2022/10/03 00:01:01;;;;;;;4;1.6;;;;;;;;;;;;;
2022/10/03 00:03:28;;;;;;;0.8;0.6;;;;;;;;;;;;;
2022/10/03 00:05:52;;;;;;;1.4;0.6;;;;;;;;;;;;;
2022/10/03 00:08:17;;;;;;;0.9;0.4;;;;;;;;;;;;;
2022/10/03 00:10:42;;;;;;;0.6;0.3;;;;;;;;;;;;;
2022/10/03 00:13:07;;;;;;;0.6;0.5;;;;;;;;;;;;;
2022/10/03 00:15:32;;;;;;;0.7;0.6;;;;;;;;;;;;;
2022/10/03 00:17:57;;;;;;;1.7;0.5;;;;;;;;;;;;;
2022/10/03 00:20:22;;;;;;;1;0.5;;;;;;;;;;;;;
2022/10/03 00:22:47;;;;;;;0.6;0.4;;;;;;;;;;;;;
2022/10/03 00:25:13;;;;;;;1.2;0.9;;;;;;;;;;;;;
2022/10/03 00:27:38;;;;;;;1.7;1.1;;;;;;;;;;;;;
2022/10/03 00:30:03;;;;;;;1.3;1.1;;;;;;;;;;;;;
2022/10/03 00:32:29;;;;;;;1.8;1.3;;;;;;;;;;;;;
2022/10/03 00:34:53;;;;;;;2.6;1.2;;;;;;;;;;;;;
2022/10/03 00:37:18;;;;;;;2.2;1.3;;;;;;;;;;;;;
2022/10/03 00:39:43;;;;;;;2.7;1.2;;;;;;;;;;;;;
2022/10/03 00:42:09;;;;;;;2;1.1;;;;;;;;;;;;;
2022/10/03 00:44:34;;;;;;;0.9;0.7;;;;;;;;;;;;;
2022/10/03 00:46:59;;;;;;;1;0.9;;;;;;;;;;;;;
2022/10/03 00:49:24;;;;;;;1;0.9;;;;;;;;;;;;;
2022/10/03 00:51:49;;;;;;;0.9;0.7;;;;;;;;;;;;;
2022/10/03 00:54:14;;;;;;;0.8;0.5;;;;;;;;;;;;;
2022/10/03 00:56:39;;;;;;;2.5;0.8;;;;;;;;;;;;;
2022/10/03 00:59:05;;;;;;;1.6;0.7;;;;;;;;;;;;;
2022/10/03 01:01:30;;;;;;;0.6;0.6;;;;;;;;;;;;;
2022/10/03 01:03:55;;;;;;;0.7;0.5;;;;;;;;;;;;;
2022/10/03 01:06:20;;;;;;;0.8;0.7;;;;;;;;;;;;;
2022/10/03 01:08:45;;;;;;;0.6;0.6;;;;;;;;;;;;;
2022/10/03 01:11:10;;;;;;;0.8;0.7;;;;;;;;;;;;;
2022/10/03 01:13:58;;;;;;;0.9;0.9;;;;;;;;;;;;;
2022/10/03 01:16:26;;;;;;;1;0.9;;;;;;;;;;;;;
2022/10/03 01:18:48;;;;;;;0.4;0.4;;;;;;;;;;;;;
2022/10/03 01:21:13;;;;;;;0.5;0.5;;;;;;;;;;;;;
2022/10/03 01:23:38;;;;;;;0.3;0.3;;;;;;;;;;;;;
2022/10/03 01:26:03;;;;;;;0.3;0.3;;;;;;;;;;;;;
2022/10/03 01:30:54;;;;;;;0.2;0.2;;;;;;;;;;;;;
2022/10/03 01:33:19;;;;;;;0.2;0.2;;;;;;;;;;;;;
2022/10/03 01:35:44;;;;;;;0.6;0.2;;;;;;;;;;;;;
2022/10/03 01:38:09;;;;;;;0.3;0.2;;;;;;;;;;;;;
2022/10/03 01:40:34;;;;;;;0.2;0.2;;;;;;;;;;;;;
2022/10/03 01:43:01;;;;;;;0.4;0.3;;;;;;;;;;;;;
2022/10/03 01:45:27;;;;;;;0.2;0.2;;;;;;;;;;;;;
2022/10/03 01:47:53;;;;;;;0.2;0.2;;;;;;;;;;;;;
2022/10/03 01:50:18;;;;;;;1.7;0.2;;;;;;;;;;;;;
2022/10/03 01:52:43;;;;;;;0.2;0.2;;;;;;;;;;;;;
2022/10/03 01:55:08;;;;;;;0.1;0.1;;;;;;;;;;;;;
2022/10/03 01:57:34;;;;;;;0.1;0.1;;;;;;;;;;;;;
2022/10/03 01:59:58;;;;;;;0.3;0.2;;;;;;;;;;;;;
2022/10/03 02:02:23;;;;;;;0.2;0.2;;;;;;;;;;;;;
2022/10/03 02:04:49;;;;;;;0.4;0.3;;;;;;;;;;;;;
2022/10/03 02:07:16;;;;;;;0.2;0.2;;;;;;;;;;;;;
2022/10/03 02:09:40;;;;;;;0.3;0.3;;;;;;;;;;;;;
2022/10/03 02:12:05;;;;;;;0.3;0.3;;;;;;;;;;;;;
2022/10/03 02:14:31;;;;;;;0.4;0.4;;;;;;;;;;;;;
2022/10/03 02:16:57;;;;;;;0.4;0.4;;;;;;;;;;;;;
2022/10/03 02:19:21;;;;;;;0.5;0.5;;;;;;;;;;;;;
2022/10/03 02:21:47;;;;;;;0.5;0.5;;;;;;;;;;;;;
2022/10/03 02:24:14;;;;;;;1.1;0.9;;;;;;;;;;;;;
2022/10/03 02:26:40;;;;;;;1;0.9;;;;;;;;;;;;;
2022/10/03 02:29:07;;;;;;;1.3;1.2;;;;;;;;;;;;;
2022/10/03 02:31:32;;;;;;;1.6;1.5;;;;;;;;;;;;;
2022/10/03 02:34:33;;;;;;;1.5;1.4;;;;;;;;;;;;;
2022/10/03 02:36:59;;;;;;;2.3;1.6;;;;;;;;;;;;;
2022/10/03 02:39:24;;;;;;;2;1.6;;;;;;;;;;;;;
2022/10/03 02:41:51;;;;;;;2.3;1.8;;;;;;;;;;;;;
2022/10/03 02:44:16;;;;;;;2.4;1.9;;;;;;;;;;;;;
2022/10/03 02:47:30;;;;;;;2.9;1.9;;;;;;;;;;;;;
2022/10/03 02:49:55;;;;;;;3;2.1;;;;;;;;;;;;;
2022/10/03 02:52:21;;;;;;;2.2;1.6;;;;;;;;;;;;;
2022/10/03 02:54:46;;;;;;;2.3;1.8;;;;;;;;;;;;;
2022/10/03 02:57:11;;;;;;;3;1.9;;;;;;;;;;;;;
2022/10/03 02:59:36;;;;;;;2.2;1.8;;;;;;;;;;;;;
2022/10/03 03:02:01;;;;;;;3.5;1.8;;;;;;;;;;;;;
2022/10/03 03:04:26;;;;;;;1.7;1.6;;;;;;;;;;;;;
2022/10/03 03:06:52;;;;;;;1.7;1.6;;;;;;;;;;;;;
2022/10/03 03:09:16;;;;;;;1.9;1.7;;;;;;;;;;;;;
2022/10/03 03:11:42;;;;;;;2.1;1.6;;;;;;;;;;;;;
2022/10/03 03:14:08;;;;;;;1.7;1.6;;;;;;;;;;;;;
2022/10/03 03:16:33;;;;;;;2.8;1.8;;;;;;;;;;;;;
2022/10/03 03:18:57;;;;;;;2.1;1.7;;;;;;;;;;;;;
2022/10/03 03:21:22;;;;;;;2.1;1.9;;;;;;;;;;;;;
2022/10/03 03:23:48;;;;;;;2.9;1.9;;;;;;;;;;;;;
2022/10/03 03:26:12;;;;;;;2.6;1.8;;;;;;;;;;;;;
2022/10/03 03:28:38;;;;;;;2.5;2.1;;;;;;;;;;;;;
2022/10/03 03:31:03;;;;;;;3;2.5;;;;;;;;;;;;;
2022/10/03 03:33:30;;;;;;;3.7;2.7;;;;;;;;;;;;;
2022/10/03 03:35:56;;;;;;;3.6;2.5;;;;;;;;;;;;;
2022/10/03 03:38:20;;;;;;;4.2;2.6;;;;;;;;;;;;;
2022/10/03 03:40:45;;;;;;;3.5;2.6;;;;;;;;;;;;;
2022/10/03 03:43:11;;;;;;;3;2.7;;;;;;;;;;;;;
2022/10/03 03:45:37;;;;;;;3.5;2.8;;;;;;;;;;;;;
2022/10/03 03:48:04;;;;;;;3.5;2.9;;;;;;;;;;;;;
2022/10/03 03:50:27;;;;;;;3.5;2.8;;;;;;;;;;;;;
2022/10/03 03:52:52;;;;;;;3.6;3.3;;;;;;;;;;;;;
2022/10/03 03:55:17;;;;;;;5.3;3.3;;;;;;;;;;;;;
2022/10/03 03:57:42;;;;;;;4.5;3.2;;;;;;;;;;;;;
2022/10/03 04:00:15;;;;;;;3.3;3;;;;;;;;;;;;;
2022/10/03 04:02:51;;;;;;;4.4;3.1;;;;;;;11.6;96.87598;945.2022;;;;
2022/10/03 04:05:18;;;;;;;4.5;2.9;;;;;;;11.64;96.50684;945.2335;;;;
2022/10/03 04:07:49;;;;;;;4.4;3.1;;;;;;;11.59;96.40527;945.2475;;;;
2022/10/03 04:10:15;;;;;;;4.6;3.9;;;;;;;11.57;96.21973;945.2568;;;;
2022/10/03 04:12:43;;;;;;;4.2;3.3;;;;;;;11.54;96.28027;945.2043;;;;
2022/10/03 04:15:08;;;;;;;4.6;3;;;;;;;11.42;96.87012;945.2319;;;;
2022/10/03 04:19:59;;;;;;;4.2;3.3;;;;;;;11.42;97.23633;945.2486;;;;
2022/10/03 04:26:20;;;;;;;5.2;3.4;;;;;;;11.43;96.82617;945.2886;;;;
2022/10/03 04:28:49;;;;;;;5.7;3.8;;;;;;;11.53;96.57422;945.2497;;;;
2022/10/03 04:31:58;;;;;;;5.1;3.9;;;;;;;11.55;96.33984;945.2133;;;;
2022/10/03 04:34:25;;;;;;;6.3;3.9;;;;;;;11.54;96.48438;945.3344;;;;
2022/10/03 04:39:15;;;;;;;5.3;4.1;;;;;;;11.32;97.11133;945.245;;;;
2022/10/03 04:41:40;;;;;;;6.7;4.4;;;;;;;11.4;96.98047;945.315;;;;
2022/10/03 04:44:10;;;;;;;7.5;4.6;;;;;;;11.33;97.30566;945.265;;;;
2022/10/03 04:46:32;;;;;;;6.7;5.1;;;;;;;11.4;97.10645;945.2911;;;;
2022/10/03 04:48:57;;;;;;;6.6;4.4;;;;;;;11.31;97.22168;945.2471;;;;
2022/10/03 04:51:23;;;;;;;6.1;4.4;;;;;;;11.21;98.03613;945.301;;;;
2022/10/03 04:53:47;;;;;;;5.7;4.1;;;;;;;11.27;97.87891;945.311;;;;
2022/10/03 04:56:13;;;;;;;6;4.1;;;;;;;11.35;97.35938;945.354;;;;
2022/10/03 04:58:38;;;;;;;4.2;3.8;;;;;;;11.38;96.97461;945.3592;;;;
2022/10/03 05:01:05;;;;;;;4.7;3.9;;;;;;;11.33;96.81543;945.277;;;;
2022/10/03 05:03:31;;;;;;;6;3.6;;;;;;;11.31;96.82324;945.2607;;;;
2022/10/03 05:06:01;;;;;;;4.9;3.3;;;;;;;11.39;96.43945;945.3044;;;;
2022/10/03 05:08:26;;;;;;;4.3;3.7;;;;;;;11.41;96.19336;945.2795;;;;
2022/10/03 05:11:17;;;;;;;5;3.5;;;;;;;11.44;96.0752;945.3391;;;;
2022/10/03 05:13:40;;;;;;;4.7;3.6;;;;;;;11.52;95.6582;945.3971;;;;
2022/10/03 05:16:06;;;;;;;4.5;3.4;;;;;;;11.53;95.46387;945.406;;;;
2022/10/03 05:18:33;;;;;;;4.4;3.9;;;;;;;11.5;95.5498;945.4079;;;;
2022/10/03 05:21:24;;;;;;;4.1;3.4;;;;;;;11.57;95.70313;945.4489;;;;
2022/10/03 05:24:01;;;;;;;6.8;4.1;;;;;;;11.44;96.0625;945.4363;;;;
2022/10/03 05:29:35;;;;;;;4.6;3.6;;;;;;;11.22;97.3291;945.48;;;;
2022/10/03 05:32:00;;;;;;;5;3.9;;;;;;;11.29;97.28809;945.4789;;;;
2022/10/03 05:34:25;;;;;;;6.4;4.1;;;;;;;11.36;97.15527;945.4722;;;;
2022/10/03 05:36:55;;;;;;;5.1;3.6;;;;;;;11.33;97.13574;945.5402;;;;
2022/10/03 05:39:20;;;;;;;5.2;4.2;;;;;;;11.45;96.7959;945.5458;;;;
2022/10/03 05:41:45;;;;;;;5.6;4.1;;;;;;;11.4;96.86621;945.5262;;;;
2022/10/03 05:44:14;;;;;;;5.6;4.1;;;;;;;11.35;97.05078;945.6378;;;;
2022/10/03 05:46:39;;;;;;;6.1;4;;;;;;;11.3;97.02734;945.609;;;;
2022/10/03 05:49:04;;;;;;;7.3;4.1;;;;;;;11.35;97.15137;945.6769;;;;
2022/10/03 05:51:38;;;;;;;6.7;4.2;;;;;;;11.38;97.35254;945.6799;;;;
2022/10/03 05:54:00;;;;;;;5.9;4.6;;;;;;;11.55;96.84375;945.6479;;;;
2022/10/03 05:56:27;;;;;;;4.6;3.8;;;;;;;11.62;96.42285;945.6997;;;;
2022/10/03 05:58:53;;;;;;;6.4;4.2;;;;;;;11.67;95.98828;945.7198;;;;
2022/10/03 06:01:17;;;;;;;4.6;4.1;;;;;;;11.76;95.37891;945.7836;;;;
2022/10/03 06:03:45;;;;;;;5.2;4.2;;;;;;;11.77;95.1748;945.7861;;;;
2022/10/03 06:06:10;;;;;;;5.5;4;;;;;;;11.76;94.89746;945.8577;;;;
2022/10/03 06:08:37;;;;;;;4.5;3.7;;;;;;;11.83;94.75293;945.8245;;;;
2022/10/03 06:11:01;;;;;;;4.5;3.8;;;;;;;11.82;94.40723;945.9089;;;;
2022/10/03 06:13:29;;;;;;;4.1;3.7;;;;;;;11.78;94.52344;945.9227;;;;
2022/10/03 06:15:59;;;;;;;4.9;4;;;;;;;11.74;95.17773;945.8645;;;;
2022/10/03 06:18:24;;;;;;;5.4;4;;;;;;;11.84;94.55859;945.9962;;;;
2022/10/03 06:20:50;;;;;;;5.9;4;;;;;;;11.89;94.31836;945.9881;;;;
2022/10/03 06:23:15;;;;;;;4.9;3.9;;;;;;;11.89;94.36426;945.9947;;;;
2022/10/03 06:25:40;;;;;;;5.4;3.9;;;;;;;11.94;94.27246;945.9907;;;;
2022/10/03 06:28:05;;;;;;;4.4;3.3;;;;;;;11.72;94.61328;946.0198;;;;
2022/10/03 06:30:32;;;;;;;5.5;3.5;;;;;;;11.68;94.66211;946.0136;;;;
2022/10/03 06:32:57;;;;;;;3.9;3.5;;;;;;;11.83;94.89063;946.0303;;;;
2022/10/03 06:35:25;;;;;;;5.1;3.8;;;;;;;11.95;94.51563;946.0642;;;;
2022/10/03 06:37:55;;;;;;;4.7;3.9;;;;;;;12.07;94.12793;946.0697;;;;
2022/10/03 06:40:22;;;;;;;4.9;3.6;;;;;;;12.08;93.06445;946.0555;;;;
2022/10/03 06:42:51;;;;;;;5;3.5;;;;;;;12.15;92.72656;946.0734;;;;
2022/10/03 06:45:16;;;;;;;5.7;3.6;;;;;;;12.09;92.5625;946.1274;;;;
2022/10/03 06:47:50;;;;;;;5.4;3.4;;;;;;;12.18;91.98535;946.1592;;;;
2022/10/03 06:53:31;;;;;;;5.6;3.7;;;;;;;12.38;92.38281;946.2025;;;;
2022/10/03 06:55:59;;;;;;;3.7;3.3;;;;;;;12.41;91.70508;946.2106;;;;
2022/10/03 06:58:27;;;;;;;5.5;4.1;;;;;;;12.21;91.80957;946.1601;;;;
2022/10/03 07:00:56;;;;;;;5.5;4.3;;;;;;;12.23;91.92871;946.1699;;;;
2022/10/03 07:03:26;;;;;;;5.1;3.8;;;;;;;12.35;92.24023;946.3172;;;;
2022/10/03 07:05:51;;;;;;;5.1;3.4;;;;;;;12.4;91.38965;946.329;;;;
2022/10/03 07:08:16;;;;;;;5.2;3.8;;;;;;;12.26;91.61328;946.3429;;;;
2022/10/03 07:10:42;;;;;;;3.8;3.4;;;;;;;12.27;91.77539;946.3998;;;;
2022/10/03 07:13:07;;;;;;;4;3.6;;;;;;;12.37;92.02539;946.3622;;;;
2022/10/03 07:16:00;;;;;;;3.8;3;;;;;;;12.44;90.30957;946.3444;;;;
2022/10/03 07:18:31;;;;;;;5.7;3.3;;;;;;;12.57;90.72754;946.3719;;;;
2022/10/03 07:21:00;;;;;;;3.7;2.9;;;;;;;12.58;89.83496;946.3497;;;;
2022/10/03 07:23:26;;;;;;;2.7;2.5;;;;;;;12.86;89.89258;946.3926;;;;
2022/10/03 07:25:52;;;;;;;3.8;2.8;;;;;;;13.07;88.33887;946.4124;;;;
2022/10/03 07:28:17;;;;;;;3.3;2.6;;;;;;;12.94;88.09375;946.4567;;;;
2022/10/03 07:30:45;;;;;;;4.3;2.9;;;;;;;13.08;87.8125;946.451;;;;
2022/10/03 07:33:10;;;;;;;4;2.9;;;;;;;13.11;88.11719;946.4762;;;;
2022/10/03 07:38:59;;;;;;;2.9;2.3;;;;;;;13.57;86.1748;946.4786;;;;
2022/10/03 07:41:07;;;;;;;3.6;2.6;;;;;;;13.69;83.98047;946.5681;;;;
2022/10/03 07:43:37;;;;;;;4.9;2.6;;;;;;;13.83;84.67383;946.5619;;;;
2022/10/03 07:46:03;;;;;;;4.3;2.9;;;;;;;13.98;84.41602;946.5193;;;;
2022/10/03 07:48:28;;;;;;;3.7;2.6;;;;;;;14.13;82.98145;946.6044;;;;
2022/10/03 07:50:53;;;;;;;3;2.7;;;;;;;14.19;83.01465;946.6305;;;;
2022/10/03 07:53:21;;;;;;;3;2.7;;;;;;;14.1;82.91895;946.6448;;;;
2022/10/03 07:55:46;;;;;;;3.8;3;;;;;;;14.12;83.06055;946.6731;;;;
2022/10/03 07:58:11;;;;;;;3.5;2.8;;;;;;;14.02;82.83496;946.7122;;;;
2022/10/03 08:00:36;;;;;;;3.7;2.9;;;;;;;13.98;83.11328;946.6778;;;;
2022/10/03 08:03:03;;;;;;;4.2;2.8;;;;;;;14.13;83.39648;946.6836;;;;
2022/10/03 08:05:28;;;;;;;3.2;2.7;;;;;;;14.1;83.03418;946.7378;;;;
2022/10/03 08:07:53;;;;;;;5.1;3;;;;;;;14.27;82.37402;946.7917;;;;
2022/10/03 08:10:18;;;;;;;3.4;2.6;;;;;;;14.34;81.98438;946.7514;;;;
2022/10/03 08:12:43;;;;;;;4;2.8;;;;;;;14.61;80.51563;946.7511;;;;
2022/10/03 08:15:19;;;;;;;4.5;2.7;;;;;;;14.76;81.44141;946.7428;;;;
2022/10/03 08:17:43;;;;;;;3.6;2.4;;;;;;;15.3;79.02441;946.7075;;;;
2022/10/03 08:20:10;;;;;;;3.8;2.3;;;;;;;15.26;78.67188;946.713;;;;
2022/10/03 08:22:35;;;;;;;3.3;2.3;;;;;;;16.31;74.84766;946.7098;;;;
2022/10/03 08:25:00;;;;;;;3.6;2.6;;;;;;;16.26;73.04492;946.6825;;;;
2022/10/03 08:27:25;;;;;;;3.4;2.1;;;;;;;16.16;74.46289;946.6555;;;;
2022/10/03 08:30:14;;;;;;;3;2.7;;;;;;;16.35;76.02246;946.6682;;;;
2022/10/03 08:32:42;;;;;;;2.7;2;;;;;;;16.94;72.11621;946.6666;;;;
2022/10/03 08:35:07;;;;;;;2.5;2.3;;;;;;;16.92;72.18164;946.7117;;;;
2022/10/03 08:37:33;;;;;;;3.2;2.1;;;;;;;17.11;69.67578;946.6827;;;;
2022/10/03 08:40:00;;;;;;;3.8;2;;;;;;;16.5;71.29004;946.6588;;;;
2022/10/03 08:42:26;;;;;;;4.9;2.2;;;;;;;16.13;73.67285;946.6498;;;;
2022/10/03 08:44:51;;;;;;;2.4;2;;;;;;;16.12;74.84766;946.678;;;;
2022/10/03 08:47:16;;;;;;;3.6;2;;;;;;;16;75.0127;946.6662;;;;
2022/10/03 08:49:41;;;;;;;2.4;1.9;;;;;;;15.92;73.21875;946.6371;;;;
2022/10/03 08:52:06;;;;;;;2.9;2.1;;;;;;;15.97;74.33789;946.6638;;;;
2022/10/03 08:54:31;;;;;;;2.8;1.8;;;;;;;16.24;72.37109;946.5964;;;;
2022/10/03 08:56:56;;;;;;;3.9;1.7;;;;;;;16.21;70.3291;946.5792;;;;
2022/10/03 08:59:47;;;;;;;1.8;1.7;;;;;;;16.03;73.46973;946.5919;;;;
2022/10/03 09:02:15;;;;;;;2.2;2;;;;;;;15.6;76.03027;946.573;;;;
2022/10/03 09:04:40;;;;;;;2.2;2;;;;;;;15.34;78.89453;946.6042;;;;
2022/10/03 09:07:06;;;;;;;1.8;1.7;;;;;;;15.5;78.98145;946.6197;;;;
2022/10/03 09:09:31;;;;;;;2.1;1.7;;;;;;;15.74;77.34863;946.6074;;;;
2022/10/03 09:11:56;;;;;;;2.4;1.6;;;;;;;15.55;77.17773;946.6864;;;;
2022/10/03 09:14:22;;;;;;;2.2;2.1;;;;;;;15.3;77.53711;946.6297;;;;
2022/10/03 09:16:50;;;;;;;2;1.8;;;;;;;15.72;76.05078;946.658;;;;
2022/10/03 09:19:15;;;;;;;2.4;2.2;;;;;;;15.7;74.92676;946.7277;;;;
2022/10/03 09:21:40;;;;;;;1.9;1.8;;;;;;;15.09;76.57715;946.7302;;;;
2022/10/03 09:24:05;;;;;;;2;1.9;;;;;;;15.21;76.125;946.7133;;;;
2022/10/03 09:26:31;;;;;;;2.4;2.1;;;;;;;15.15;76.77148;946.6808;;;;
2022/10/03 09:29:39;;;;;;;1.6;1.5;;;;;;;15.02;77.31348;946.8148;;;;
2022/10/03 09:32:04;;;;;;;3;1.9;;;;;;;14.77;79.67969;946.8046;;;;
2022/10/03 09:34:29;;;;;;;2.7;2;;;;;;;14.76;79.07813;946.762;;;;
2022/10/03 09:36:56;;;;;;;2.4;1.5;;;;;;;14.98;78.2998;946.7701;;;;
2022/10/03 09:39:28;;;;;;;1.6;1.2;;;;;;;14.93;79.50195;946.7305;;;;
2022/10/03 09:41:53;;;;;;;3.3;1.6;;;;;;;14.7;78.8252;946.7673;;;;
2022/10/03 09:44:20;;;;;;;2.5;1.6;;;;;;;14.5;81.18555;946.7277;;;;
2022/10/03 09:46:45;;;;;;;2.4;1.5;;;;;;;14.6;79.04883;946.775;;;;
2022/10/03 09:49:12;;;;;;;4.3;2.1;;;;;;;14.69;80.5293;946.723;;;;
2022/10/03 09:51:37;;;;;;;3.2;2.2;;;;;;;14.57;80.01172;946.7251;;;;
2022/10/03 09:54:02;;;;;;;2.6;1.7;;;;;;;14.79;80.12109;946.7141;;;;
2022/10/03 09:56:30;;;;;;;2.4;1.7;;;;;;;15.14;78.60645;946.6608;;;;
2022/10/03 09:58:55;;;;;;;2.6;2;;;;;;;14.98;79.78613;946.6507;;;;
2022/10/03 10:01:25;;;;;;;2.5;1.6;;;;;;;15.18;78.55371;946.6898;;;;
2022/10/03 10:03:51;;;;;;;3.1;1.5;;;;;;;15.23;75.48145;946.6431;;;;
2022/10/03 10:06:25;;;;;;;3.4;1.4;;;;;;;15.29;75.81543;946.6401;;;;
2022/10/03 10:08:50;;;;;;;2.6;1.7;;;;;;;15.29;77.79004;946.6384;;;;
2022/10/03 10:11:15;;;;;;;2.9;1.3;;;;;;;15.87;73.4082;946.596;;;;
2022/10/03 10:13:43;;;;;;;2.6;1.9;;;;;;;16;73.00293;946.5818;;;;
2022/10/03 10:16:10;;;;;;;3.5;1.7;;;;;;;15.65;74.28418;946.5517;;;;
2022/10/03 10:18:35;;;;;;;3.7;1.6;;;;;;;15.68;75.69824;946.5309;;;;
2022/10/03 10:21:04;;;;;;;3.1;1.8;;;;;;;15.73;76.31836;946.5511;;;;
2022/10/03 10:23:32;;;;;;;2.3;1.6;;;;;;;15.66;75.86816;946.4796;;;;
2022/10/03 10:25:59;;;;;;;3.4;1.8;;;;;;;15.66;75.59082;946.5172;;;;
2022/10/03 10:28:24;;;;;;;1.7;1.4;;;;;;;15.68;74.64648;946.4755;;;;
2022/10/03 10:30:54;;;;;;;2.5;1.7;;;;;;;16.49;75.8623;946.4352;;;;
2022/10/03 10:33:18;;;;;;;2.5;1.7;;;;;;;16.96;70.69238;946.3849;;;;
2022/10/03 10:35:43;;;;;;;2;1.5;;;;;;;17.25;70.90332;946.3702;;;;
2022/10/03 10:39:52;;;;;;;2.4;1.5;;;;;;;17.47;69.87109;946.3657;;;;
2022/10/03 10:42:15;;;;;;;2.1;1.5;;;;;;;17.78;67.98047;946.2819;;;;
2022/10/03 10:44:40;;;;;;;1.3;1.2;;;;;;;18.09;64.23047;946.225;;;;
2022/10/03 10:47:05;;;;;;;1.6;1.2;;;;;;;17.48;64.62988;946.1909;;;;
2022/10/03 10:49:32;;;;;;;1.6;1.4;;;;;;;17.4;67.85449;946.2175;;;;
2022/10/03 10:52:45;;;;;;;1.7;1.5;;;;;;;18.48;63.76465;946.1219;;;;
2022/10/03 10:55:15;;;;;;;1.2;1.1;;;;;;;17.72;64.55859;946.0921;;;;
2022/10/03 10:57:44;;;;;;;1.6;1.3;;;;;;;17.63;66.43945;946.0995;;;;
2022/10/03 11:00:16;;;;;;;1.8;1.2;;;;;;;18.29;66.1416;946.061;;;;
2022/10/03 11:02:46;;;;;;;1.2;1.1;;;;;;;18.46;65.22559;946.0011;;;;
2022/10/03 11:05:18;;;;;;;1;0.9;;;;;;;18.57;63.91602;946.0154;;;;
2022/10/03 11:07:54;;;;;;;1.8;1.1;;;;;;;18.82;62.30176;945.9719;;;;
2022/10/03 11:10:22;;;;;;;1.5;1;;;;;;;18.84;59.84863;945.9435;;;;
2022/10/03 11:12:59;;;;;;;1.6;1.1;;;;;;;18.34;65.37207;945.9952;;;;
2022/10/03 11:15:31;;;;;;;1.4;1.1;;;;;;;18.22;64.39063;945.9526;;;;
2022/10/03 11:17:56;;;;;;;1.6;1.1;;;;;;;17.71;63.76953;945.8875;;;;
2022/10/03 11:20:27;;;;;;;2.5;1.1;;;;;;;17.02;66.97266;945.916;;;;
2022/10/03 11:22:56;;;;;;;2.1;1.3;;;;;;;17.4;66.61328;945.8962;;;;
2022/10/03 11:25:27;;;;;;;1.5;1.2;;;;;;;17.97;65.27051;945.9362;;;;
2022/10/03 11:27:56;;;;;;;2.5;1.3;;;;;;;18.64;63.99609;945.9008;;;;
2022/10/03 11:30:21;;;;;;;2.1;1.2;;;;;;;18.21;64.35254;945.8122;;;;
2022/10/03 11:32:46;;;;;;;4.1;1.9;;;;;;;18.14;67.13184;945.8409;;;;
2022/10/03 11:35:17;;;;;;;2.2;1.5;;;;;;;18.63;62.77344;945.8074;;;;
2022/10/03 11:37:42;;;;;;;3.5;1.8;;;;;;;18.85;63.34082;945.8449;;;;
2022/10/03 11:40:07;;;;;;;3.5;1.6;;;;;;;19.55;61.30859;945.8969;;;;
2022/10/03 11:42:39;;;;;;;1.7;1.2;;;;;;;20.02;58.99316;945.7787;;;;
2022/10/03 11:45:04;;;;;;;4;1.5;;;;;;;20.35;57.14551;945.8769;;;;
2022/10/03 11:47:38;;;;;;;2.2;1.4;;;;;;;20.05;57.43359;945.793;;;;
2022/10/03 11:50:03;;;;;;;1.8;1.3;;;;;;;20.77;55.54004;945.8108;;;;
2022/10/03 11:52:28;;;;;;;1.5;1.3;;;;;;;19.94;56.94043;945.8081;;;;
2022/10/03 11:54:56;;;;;;;1.6;1.2;;;;;;;19.32;59.5293;945.8557;;;;
2022/10/03 11:57:29;;;;;;;3.2;1.9;;;;;;;18.81;61.7998;945.8208;;;;
2022/10/03 11:59:58;;;;;;;1.6;1.2;;;;;;;18.34;62.93066;945.8558;;;;
2022/10/03 12:02:22;;;;;;;3.3;1.5;;;;;;;18.38;63.05273;945.8563;;;;
2022/10/03 12:04:49;;;;;;;3.3;1.5;;;;;;;18.85;61.9209;945.8287;;;;
2022/10/03 12:09:51;;;;;;;2.3;1.3;;;;;;;18.88;59.91309;945.8083;;;;
2022/10/03 12:12:18;;;;;;;4.4;1.5;;;;;;;18.77;61.15332;945.764;;;;
2022/10/03 12:14:43;;;;;;;2.2;1.3;;;;;;;19.85;57;945.6979;;;;
2022/10/03 12:17:13;;;;;;;1.3;1;;;;;;;19.46;56.58887;945.7403;;;;
2022/10/03 12:19:37;;;;;;;1.1;1;;;;;;;19.02;58.21973;945.735;;;;
2022/10/03 12:22:02;;;;;;;1.4;1.1;;;;;;;18.19;62.16699;945.7147;;;;
2022/10/03 12:24:30;;;;;;;1.8;1.3;;;;;;;18.02;63.53516;945.7307;;;;
2022/10/03 12:26:56;;;;;;;2.8;1.4;;;;;;;18.35;60.6543;945.7436;;;;
2022/10/03 12:29:21;;;;;;;1.6;1.1;;;;;;;18.55;60.22754;945.7203;;;;
2022/10/03 12:31:47;;;;;;;1.6;1.4;;;;;;;18.47;59.84473;945.7388;;;;
2022/10/03 12:34:15;;;;;;;1.3;1;;;;;;;19.73;57.6377;945.654;;;;
2022/10/03 12:36:41;;;;;;;1.3;1.1;;;;;;;20.28;54.39258;945.6531;;;;
2022/10/03 12:39:06;;;;;;;1.7;1;;;;;;;20.29;54.33594;945.6077;;;;
2022/10/03 12:41:31;;;;;;;1.9;1.2;;;;;;;19.88;54.72852;945.585;;;;
2022/10/03 12:44:04;;;;;;;2.6;1.3;;;;;;;19.3;57.16016;945.5991;;;;
2022/10/03 12:46:25;;;;;;;1.9;1.1;;;;;;;19.2;58.20898;945.6524;;;;
2022/10/03 12:48:50;;;;;;;1.7;1.2;;;;;;;19.11;58.52246;945.6301;;;;
2022/10/03 12:51:15;;;;;;;1.8;1.1;;;;;;;19.6;56.64063;945.6151;;;;
2022/10/03 12:53:40;;;;;;;3.7;1.3;;;;;;;19.88;56.20996;945.5818;;;;
2022/10/03 12:56:07;;;;;;;3;1.4;;;;;;;20.92;55.18457;945.5637;;;;
2022/10/03 12:58:31;;;;;;;2.3;1.2;;;;;;;23.58;46.74219;945.5837;;;;
2022/10/03 13:01:00;;;;;;;1.7;1.2;;;;;;;24.22;45.30078;945.5245;;;;
2022/10/03 13:03:27;;;;;;;1.2;1;;;;;;;24.47;43.74707;945.5467;;;;
2022/10/03 13:05:55;;;;;;;1.7;0.8;;;;;;;24.47;44.17188;945.5938;;;;
2022/10/03 13:08:18;;;;;;;2;1;;;;;;;27.1;39.08496;945.5432;;;;
2022/10/03 13:10:44;;;;;;;2;1.1;;;;;;;27.8;37.75684;945.5958;;;;
2022/10/03 13:13:07;;;;;;;2.5;0.9;;;;;;;27.85;36.08691;945.5028;;;;
2022/10/03 13:15:33;;;;;;;1.2;0.8;;;;;;;27.43;37.80957;945.506;;;;
2022/10/03 13:17:58;;;;;;;0.7;0.7;;;;;;;28.5;35.27051;945.4874;;;;
2022/10/03 13:20:23;;;;;;;1.9;1.1;;;;;;;30.01;33.05078;945.4648;;;;
2022/10/03 13:22:48;;;;;;;1.2;1;;;;;;;30.25;31.8623;945.4853;;;;
2022/10/03 13:25:15;;;;;;;0.8;0.8;;;;;;;28.13;34.75488;945.4342;;;;
2022/10/03 13:27:45;;;;;;;0.7;0.7;;;;;;;25.76;38.94629;945.402;;;;
2022/10/03 13:30:16;;;;;;;0.9;0.7;;;;;;;25.68;39.62305;945.4135;;;;
2022/10/03 13:32:42;;;;;;;1.3;0.8;;;;;;;27.41;35.36426;945.4758;;;;
2022/10/03 13:37:39;;;;;;;1.3;1;;;;;;;27.74;34.83203;945.3898;;;;
2022/10/03 13:40:08;;;;;;;2.2;1;;;;;;;27.74;35.0459;945.375;;;;
2022/10/03 13:42:38;;;;;;;1;0.7;;;;;;;26.27;37.90137;945.4019;;;;
2022/10/03 13:45:04;;;;;;;2.6;1.1;;;;;;;24.77;40.86426;945.3488;;;;
2022/10/03 13:47:28;;;;;;;1.1;1;;;;;;;24.26;41.68945;945.324;;;;
2022/10/03 13:49:53;;;;;;;1;0.9;;;;;;;23.39;43.95898;945.2952;;;;
2022/10/03 13:52:20;;;;;;;1.7;1.1;;;;;;;23.22;45.59961;945.2559;;;;
2022/10/03 13:54:44;;;;;;;2;1.1;;;;;;;24.34;43.47559;945.2947;;;;
2022/10/03 13:57:09;;;;;;;3.5;1.2;;;;;;;24.87;41.61621;945.2845;;;;
2022/10/03 13:59:34;;;;;;;1.5;1.2;;;;;;;25.77;39.46582;945.2516;;;;
2022/10/03 14:02:01;;;;;;;1.6;1.1;;;;;;;26.42;39.29883;945.2607;;;;
2022/10/03 14:04:30;;;;;;;2.8;1.3;;;;;;;26.66;37.4248;945.1262;;;;
2022/10/03 14:07:00;;;;;;;1;0.9;;;;;;;25.12;40.08203;945.1513;;;;
2022/10/03 14:09:25;;;;;;;1.9;1.1;;;;;;;23.81;42.94141;945.1389;;;;
2022/10/03 14:11:50;;;;;;;1.3;1.1;;;;;;;22.54;46.20996;945.1975;;;;
2022/10/03 14:14:15;;;;;;;1.4;1.1;;;;;;;20.82;50.60156;945.1688;;;;
2022/10/03 14:16:42;;;;;;;1.9;0.9;;;;;;;20.35;50.83984;945.127;;;;
2022/10/03 14:19:07;;;;;;;1.7;1;;;;;;;21;51.05566;945.1379;;;;
2022/10/03 14:21:33;;;;;;;2.1;1.1;;;;;;;22.22;48.20605;945.1702;;;;
2022/10/03 14:23:58;;;;;;;0.9;0.7;;;;;;;23.6;45.03906;945.1285;;;;
2022/10/03 14:26:23;;;;;;;1.5;0.9;;;;;;;25.57;39.41406;945.0676;;;;
2022/10/03 14:28:48;;;;;;;1.7;1.3;;;;;;;25.73;39.42773;945.0809;;;;
2022/10/03 14:31:13;;;;;;;2.2;1;;;;;;;24.03;43.00977;945.1553;;;;
2022/10/03 14:33:38;;;;;;;2.3;1.1;;;;;;;22.3;46.60742;945.2291;;;;
2022/10/03 14:36:03;;;;;;;1.9;1;;;;;;;21.98;47.17188;945.2009;;;;
2022/10/03 14:38:56;;;;;;;2.1;1.3;;;;;;;22.27;47.33203;945.1862;;;;
2022/10/03 14:40:54;;;;;;;1.3;1;;;;;;;22.04;47.64746;945.2279;;;;
2022/10/03 14:43:19;;;;;;;1.3;1.1;;;;;;;21.11;50.21387;945.1142;;;;
2022/10/03 14:45:45;;;;;;;1.9;1.2;;;;;;;20.62;52.13281;945.161;;;;
2022/10/03 14:48:12;;;;;;;2;1.3;;;;;;;20.36;53.46973;945.1381;;;;
2022/10/03 14:50:37;;;;;;;1.3;1.2;;;;;;;19.91;54.40527;945.2039;;;;
2022/10/03 14:53:05;;;;;;;3.6;1.3;;;;;;;19.33;56.53516;945.2377;;;;
2022/10/03 14:55:35;;;;;;;1.5;1.1;;;;;;;19.08;57.88965;945.2462;;;;
2022/10/03 14:58:01;;;;;;;2.8;1.4;;;;;;;19.2;57.18359;945.2406;;;;
2022/10/03 15:00:29;;;;;;;3.7;1.4;;;;;;;19.07;56.88672;945.1841;;;;
2022/10/03 15:02:54;;;;;;;2.4;1.5;;;;;;;18.58;57.32422;945.2288;;;;
2022/10/03 15:05:24;;;;;;;2.6;1.3;;;;;;;18.4;57.99805;945.248;;;;
2022/10/03 15:07:49;;;;;;;2.2;1.3;;;;;;;18.09;59.08594;945.2037;;;;
2022/10/03 15:10:18;;;;;;;5.3;1.8;;;;;;;17.92;59.67676;945.0887;;;;
2022/10/03 15:12:45;;;;;;;2;1.5;;;;;;;17.76;60.02734;945.1114;;;;
2022/10/03 15:15:13;;;;;;;3.9;1.9;;;;;;;17.83;60.79102;945.0927;;;;
2022/10/03 15:17:38;;;;;;;2.4;1.7;;;;;;;17.72;60.53223;945.1052;;;;
2022/10/03 15:20:03;;;;;;;4.3;2;;;;;;;17.38;62.0625;945.0808;;;;
2022/10/03 15:22:28;;;;;;;3.1;1.7;;;;;;;17.31;62.42285;945.1408;;;;
2022/10/03 15:24:58;;;;;;;4;1.8;;;;;;;17.16;63.24805;945.1308;;;;
2022/10/03 15:27:23;;;;;;;4.2;2.2;;;;;;;16.94;64.00586;945.1186;;;;
2022/10/03 15:29:49;;;;;;;3.9;2.2;;;;;;;16.66;65.16797;945.0627;;;;
2022/10/03 15:32:14;;;;;;;2.5;1.8;;;;;;;16.72;65.13086;945.0756;;;;
2022/10/03 15:34:38;;;;;;;4;2;;;;;;;16.71;64.53906;945.1456;;;;
2022/10/03 15:37:06;;;;;;;4.1;2;;;;;;;16.47;65.33594;945.1401;;;;
2022/10/03 15:39:29;;;;;;;5.4;2.3;;;;;;;16.25;66.41406;945.0494;;;;
2022/10/03 15:41:54;;;;;;;4.3;2;;;;;;;16.01;67.60352;945.082;;;;
2022/10/03 15:44:20;;;;;;;3.4;1.9;;;;;;;16.16;67.19922;945.0661;;;;
2022/10/03 15:46:45;;;;;;;5.1;2.1;;;;;;;16.1;67.61719;945.0356;;;;
2022/10/03 15:49:13;;;;;;;4.9;2.3;;;;;;;15.81;69.33105;945.0584;;;;
2022/10/03 15:51:39;;;;;;;3.9;2.3;;;;;;;15.92;68.89551;944.984;;;;
2022/10/03 15:54:03;;;;;;;4.2;2.3;;;;;;;15.73;69.06348;945.007;;;;
2022/10/03 15:56:30;;;;;;;3.2;2;;;;;;;15.84;68.89453;945.0266;;;;
2022/10/03 15:58:54;;;;;;;3.4;2.1;;;;;;;15.86;68.70215;944.9816;;;;
2022/10/03 16:01:18;;;;;;;2.9;2;;;;;;;15.86;68.08984;945.0298;;;;
2022/10/03 16:03:46;;;;;;;2.9;2.1;;;;;;;15.76;68.31641;945.0231;;;;
2022/10/03 16:06:09;;;;;;;2.7;1.9;;;;;;;15.87;68.41406;945.0273;;;;
2022/10/03 16:08:35;;;;;;;5.2;2.4;;;;;;;15.89;68.64941;945.0306;;;;